Hicksville, Virginia
Current Conditions -  °F | °C
As of 3:52 PM on Wednesday 26 Nov 2014 (Local Time) from KBLF Reporting Station
Moderate Fog Moderate Fog  
Wind Chill:   Ceiling: 200
Heat Index:   Visibility: 0.5mi
Dew Point:   Wind: 3mph
Humidity: 89%   Direction: 270°W
Pressure: 29.96"   Gusts: NA
Location:  37.1593°N, 81.1986°W
Report Text: KBLF 262052Z AUTO 27003KT 1/2SM FG VV002 02/01 A2996 RMK AO2 SLP151 T00220006 55001
Loading
Personal Weather Stations






























Interactive Weather Map New forecast layout! Learn more

10-Day Weather Forecast

Advertisements
Track Severe Weather on mobile